sensor_id;sensor_type;location;lat;lon;timestamp;P1;durP1;ratioP1;P2;durP2;ratioP2
69246;SDS011;56358;56.328;43.992;2022-12-10T00:01:28;7.40;;;2.78;;
69246;SDS011;56358;56.328;43.992;2022-12-10T00:03:30;6.13;;;2.53;;
69246;SDS011;56358;56.328;43.992;2022-12-10T00:05:34;7.82;;;2.50;;
69246;SDS011;56358;56.328;43.992;2022-12-10T00:07:35;5.60;;;2.40;;
69246;SDS011;56358;56.328;43.992;2022-12-10T00:09:36;6.32;;;2.88;;
69246;SDS011;56358;56.328;43.992;2022-12-10T00:11:37;6.00;;;3.00;;
69246;SDS011;56358;56.328;43.992;2022-12-10T00:13:39;6.10;;;2.53;;
69246;SDS011;56358;56.328;43.992;2022-12-10T00:15:40;7.80;;;2.55;;
69246;SDS011;56358;56.328;43.992;2022-12-10T00:17:41;7.38;;;2.95;;
69246;SDS011;56358;56.328;43.992;2022-12-10T00:19:42;6.07;;;2.83;;
69246;SDS011;56358;56.328;43.992;2022-12-10T00:21:43;3.92;;;2.17;;
69246;SDS011;56358;56.328;43.992;2022-12-10T00:23:45;11.13;;;3.45;;
69246;SDS011;56358;56.328;43.992;2022-12-10T00:25:46;8.98;;;2.90;;
69246;SDS011;56358;56.328;43.992;2022-12-10T00:27:47;5.85;;;2.25;;
69246;SDS011;56358;56.328;43.992;2022-12-10T00:29:47;8.35;;;2.50;;
69246;SDS011;56358;56.328;43.992;2022-12-10T00:31:48;6.25;;;2.78;;
69246;SDS011;56358;56.328;43.992;2022-12-10T00:33:49;10.35;;;3.05;;
69246;SDS011;56358;56.328;43.992;2022-12-10T00:35:50;7.47;;;3.03;;
69246;SDS011;56358;56.328;43.992;2022-12-10T00:37:51;6.70;;;2.70;;
69246;SDS011;56358;56.328;43.992;2022-12-10T00:39:51;7.15;;;2.80;;
69246;SDS011;56358;56.328;43.992;2022-12-10T00:41:52;7.07;;;3.05;;
69246;SDS011;56358;56.328;43.992;2022-12-10T00:43:52;6.40;;;3.28;;
69246;SDS011;56358;56.328;43.992;2022-12-10T00:45:53;8.18;;;3.30;;
69246;SDS011;56358;56.328;43.992;2022-12-10T00:47:54;5.47;;;2.72;;
69246;SDS011;56358;56.328;43.992;2022-12-10T00:49:54;8.70;;;3.00;;
69246;SDS011;56358;56.328;43.992;2022-12-10T00:51:55;8.50;;;3.15;;
69246;SDS011;56358;56.328;43.992;2022-12-10T00:53:57;10.52;;;3.60;;
69246;SDS011;56358;56.328;43.992;2022-12-10T00:55:58;5.63;;;2.70;;
69246;SDS011;56358;56.328;43.992;2022-12-10T00:58:00;7.13;;;2.72;;
69246;SDS011;56358;56.328;43.992;2022-12-10T01:00:00;5.47;;;2.70;;
69246;SDS011;56358;56.328;43.992;2022-12-10T01:02:02;7.07;;;2.80;;
69246;SDS011;56358;56.328;43.992;2022-12-10T01:04:04;8.30;;;2.88;;
69246;SDS011;56358;56.328;43.992;2022-12-10T01:06:14;6.10;;;2.78;;
69246;SDS011;56358;56.328;43.992;2022-12-10T01:08:17;5.75;;;2.65;;
69246;SDS011;56358;56.328;43.992;2022-12-10T01:10:18;7.00;;;2.50;;
69246;SDS011;56358;56.328;43.992;2022-12-10T01:12:18;3.70;;;2.00;;
69246;SDS011;56358;56.328;43.992;2022-12-10T01:14:21;7.35;;;2.47;;
69246;SDS011;56358;56.328;43.992;2022-12-10T01:16:25;5.13;;;2.40;;
69246;SDS011;56358;56.328;43.992;2022-12-10T01:18:26;6.20;;;2.65;;
69246;SDS011;56358;56.328;43.992;2022-12-10T01:20:26;7.22;;;3.20;;
69246;SDS011;56358;56.328;43.992;2022-12-10T01:22:27;8.90;;;2.65;;
69246;SDS011;56358;56.328;43.992;2022-12-10T01:24:28;5.32;;;2.33;;
69246;SDS011;56358;56.328;43.992;2022-12-10T01:26:30;6.55;;;2.55;;
69246;SDS011;56358;56.328;43.992;2022-12-10T01:28:34;5.80;;;2.78;;
69246;SDS011;56358;56.328;43.992;2022-12-10T01:30:36;7.03;;;3.22;;
69246;SDS011;56358;56.328;43.992;2022-12-10T01:32:37;6.20;;;2.80;;
69246;SDS011;56358;56.328;43.992;2022-12-10T01:34:37;4.53;;;2.40;;
69246;SDS011;56358;56.328;43.992;2022-12-10T01:36:39;5.25;;;2.30;;
69246;SDS011;56358;56.328;43.992;2022-12-10T01:38:41;5.25;;;2.75;;
69246;SDS011;56358;56.328;43.992;2022-12-10T01:40:42;5.93;;;2.83;;
69246;SDS011;56358;56.328;43.992;2022-12-10T01:42:43;7.72;;;2.80;;
69246;SDS011;56358;56.328;43.992;2022-12-10T01:46:45;6.40;;;2.85;;
69246;SDS011;56358;56.328;43.992;2022-12-10T01:48:47;5.07;;;2.50;;
69246;SDS011;56358;56.328;43.992;2022-12-10T01:50:48;6.78;;;2.72;;
69246;SDS011;56358;56.328;43.992;2022-12-10T01:52:49;6.85;;;2.83;;
69246;SDS011;56358;56.328;43.992;2022-12-10T01:54:50;5.32;;;2.38;;
69246;SDS011;56358;56.328;43.992;2022-12-10T01:57:13;5.95;;;2.92;;
69246;SDS011;56358;56.328;43.992;2022-12-10T01:59:20;4.90;;;2.42;;
69246;SDS011;56358;56.328;43.992;2022-12-10T02:01:24;4.75;;;2.50;;
69246;SDS011;56358;56.328;43.992;2022-12-10T02:06:01;7.90;;;2.50;;
69246;SDS011;56358;56.328;43.992;2022-12-10T02:12:48;5.47;;;2.28;;
69246;SDS011;56358;56.328;43.992;2022-12-10T02:19:05;4.75;;;2.13;;
69246;SDS011;56358;56.328;43.992;2022-12-10T02:21:43;6.38;;;2.33;;
69246;SDS011;56358;56.328;43.992;2022-12-10T02:23:46;5.72;;;2.78;;
69246;SDS011;56358;56.328;43.992;2022-12-10T02:30:21;5.50;;;2.65;;
69246;SDS011;56358;56.328;43.992;2022-12-10T02:32:23;5.55;;;2.53;;
69246;SDS011;56358;56.328;43.992;2022-12-10T02:34:28;5.72;;;2.20;;
69246;SDS011;56358;56.328;43.992;2022-12-10T02:36:33;5.72;;;2.75;;
69246;SDS011;56358;56.328;43.992;2022-12-10T02:38:37;5.53;;;2.70;;
69246;SDS011;56358;56.328;43.992;2022-12-10T02:40:42;5.15;;;2.45;;
69246;SDS011;56358;56.328;43.992;2022-12-10T02:42:47;6.70;;;2.20;;
69246;SDS011;56358;56.328;43.992;2022-12-10T02:44:49;6.88;;;2.75;;
69246;SDS011;56358;56.328;43.992;2022-12-10T02:46:52;8.52;;;2.83;;
69246;SDS011;56358;56.328;43.992;2022-12-10T02:48:55;5.25;;;2.25;;
69246;SDS011;56358;56.328;43.992;2022-12-10T02:50:58;3.45;;;1.92;;
69246;SDS011;56358;56.328;43.992;2022-12-10T02:52:59;3.95;;;2.35;;
69246;SDS011;56358;56.328;43.992;2022-12-10T02:54:59;7.07;;;2.33;;
69246;SDS011;56358;56.328;43.992;2022-12-10T02:57:01;4.70;;;2.40;;
69246;SDS011;56358;56.328;43.992;2022-12-10T02:59:18;4.95;;;2.15;;
69246;SDS011;56358;56.328;43.992;2022-12-10T03:01:38;4.97;;;2.10;;
69246;SDS011;56358;56.328;43.992;2022-12-10T03:03:48;7.25;;;2.08;;
69246;SDS011;56358;56.328;43.992;2022-12-10T03:10:08;7.15;;;3.08;;
69246;SDS011;56358;56.328;43.992;2022-12-10T03:12:22;5.10;;;2.40;;
69246;SDS011;56358;56.328;43.992;2022-12-10T03:14:30;6.70;;;2.63;;
69246;SDS011;56358;56.328;43.992;2022-12-10T03:16:34;7.88;;;2.72;;
69246;SDS011;56358;56.328;43.992;2022-12-10T03:18:37;5.50;;;2.60;;
69246;SDS011;56358;56.328;43.992;2022-12-10T03:20:39;7.95;;;2.50;;
69246;SDS011;56358;56.328;43.992;2022-12-10T03:22:45;4.72;;;2.35;;
69246;SDS011;56358;56.328;43.992;2022-12-10T03:24:47;9.02;;;2.58;;
69246;SDS011;56358;56.328;43.992;2022-12-10T03:26:48;5.10;;;2.50;;
69246;SDS011;56358;56.328;43.992;2022-12-10T03:28:56;5.13;;;2.40;;
69246;SDS011;56358;56.328;43.992;2022-12-10T03:31:05;3.95;;;1.60;;
69246;SDS011;56358;56.328;43.992;2022-12-10T03:33:07;3.75;;;2.13;;
69246;SDS011;56358;56.328;43.992;2022-12-10T03:35:09;6.40;;;2.45;;
69246;SDS011;56358;56.328;43.992;2022-12-10T03:37:11;6.10;;;2.60;;
69246;SDS011;56358;56.328;43.992;2022-12-10T03:39:13;8.23;;;2.80;;
69246;SDS011;56358;56.328;43.992;2022-12-10T03:41:14;5.43;;;2.22;;
69246;SDS011;56358;56.328;43.992;2022-12-10T03:43:15;7.57;;;2.70;;
69246;SDS011;56358;56.328;43.992;2022-12-10T03:45:15;5.35;;;2.30;;
69246;SDS011;56358;56.328;43.992;2022-12-10T03:47:17;9.10;;;2.78;;
69246;SDS011;56358;56.328;43.992;2022-12-10T03:49:19;4.55;;;2.33;;
69246;SDS011;56358;56.328;43.992;2022-12-10T03:51:20;7.47;;;2.53;;
69246;SDS011;56358;56.328;43.992;2022-12-10T03:53:21;5.10;;;2.42;;
69246;SDS011;56358;56.328;43.992;2022-12-10T03:55:21;5.22;;;2.40;;
69246;SDS011;56358;56.328;43.992;2022-12-10T03:57:22;7.43;;;2.72;;
69246;SDS011;56358;56.328;43.992;2022-12-10T03:59:23;7.65;;;2.50;;
69246;SDS011;56358;56.328;43.992;2022-12-10T04:01:23;7.80;;;3.08;;
69246;SDS011;56358;56.328;43.992;2022-12-10T04:03:24;5.10;;;2.58;;
69246;SDS011;56358;56.328;43.992;2022-12-10T04:05:24;4.30;;;2.40;;
69246;SDS011;56358;56.328;43.992;2022-12-10T04:07:25;5.05;;;2.42;;
69246;SDS011;56358;56.328;43.992;2022-12-10T04:09:26;7.97;;;2.50;;
69246;SDS011;56358;56.328;43.992;2022-12-10T04:11:26;5.80;;;2.50;;
69246;SDS011;56358;56.328;43.992;2022-12-10T04:13:27;4.95;;;2.22;;
69246;SDS011;56358;56.328;43.992;2022-12-10T04:15:46;5.53;;;2.20;;
69246;SDS011;56358;56.328;43.992;2022-12-10T04:18:06;6.15;;;2.20;;
69246;SDS011;56358;56.328;43.992;2022-12-10T04:20:06;7.88;;;2.30;;
69246;SDS011;56358;56.328;43.992;2022-12-10T04:22:27;5.57;;;2.22;;
69246;SDS011;56358;56.328;43.992;2022-12-10T04:24:46;5.32;;;2.35;;
69246;SDS011;56358;56.328;43.992;2022-12-10T04:27:08;6.15;;;2.45;;
69246;SDS011;56358;56.328;43.992;2022-12-10T04:29:10;5.43;;;2.63;;
69246;SDS011;56358;56.328;43.992;2022-12-10T04:31:12;5.18;;;2.50;;
69246;SDS011;56358;56.328;43.992;2022-12-10T04:33:12;5.80;;;2.50;;
69246;SDS011;56358;56.328;43.992;2022-12-10T04:35:13;5.43;;;2.70;;
69246;SDS011;56358;56.328;43.992;2022-12-10T04:37:14;7.05;;;2.70;;
69246;SDS011;56358;56.328;43.992;2022-12-10T04:39:16;7.97;;;2.85;;
69246;SDS011;56358;56.328;43.992;2022-12-10T04:41:17;6.20;;;2.60;;
69246;SDS011;56358;56.328;43.992;2022-12-10T04:43:17;4.80;;;2.65;;
69246;SDS011;56358;56.328;43.992;2022-12-10T04:45:18;5.43;;;2.53;;
69246;SDS011;56358;56.328;43.992;2022-12-10T04:47:18;5.55;;;2.38;;
69246;SDS011;56358;56.328;43.992;2022-12-10T04:49:19;5.50;;;2.60;;
69246;SDS011;56358;56.328;43.992;2022-12-10T04:51:20;6.93;;;2.70;;
69246;SDS011;56358;56.328;43.992;2022-12-10T04:53:20;5.38;;;2.17;;
69246;SDS011;56358;56.328;43.992;2022-12-10T04:55:22;5.57;;;2.35;;
69246;SDS011;56358;56.328;43.992;2022-12-10T04:57:23;7.53;;;2.20;;
69246;SDS011;56358;56.328;43.992;2022-12-10T04:59:23;5.03;;;2.60;;
69246;SDS011;56358;56.328;43.992;2022-12-10T05:01:24;8.75;;;2.92;;
69246;SDS011;56358;56.328;43.992;2022-12-10T05:03:25;5.72;;;2.45;;
69246;SDS011;56358;56.328;43.992;2022-12-10T05:05:26;5.55;;;2.17;;
69246;SDS011;56358;56.328;43.992;2022-12-10T05:07:27;4.95;;;2.83;;
69246;SDS011;56358;56.328;43.992;2022-12-10T05:09:28;6.03;;;2.50;;
69246;SDS011;56358;56.328;43.992;2022-12-10T05:11:29;6.13;;;2.50;;
69246;SDS011;56358;56.328;43.992;2022-12-10T05:13:31;4.93;;;2.17;;
69246;SDS011;56358;56.328;43.992;2022-12-10T05:15:32;5.65;;;2.75;;
69246;SDS011;56358;56.328;43.992;2022-12-10T05:17:33;6.30;;;2.67;;
69246;SDS011;56358;56.328;43.992;2022-12-10T05:19:34;4.85;;;2.40;;
69246;SDS011;56358;56.328;43.992;2022-12-10T05:21:34;4.22;;;2.38;;
69246;SDS011;56358;56.328;43.992;2022-12-10T05:23:53;5.28;;;2.10;;
69246;SDS011;56358;56.328;43.992;2022-12-10T05:26:00;4.85;;;2.58;;
69246;SDS011;56358;56.328;43.992;2022-12-10T05:28:08;7.15;;;2.30;;
69246;SDS011;56358;56.328;43.992;2022-12-10T05:30:08;5.22;;;2.20;;
69246;SDS011;56358;56.328;43.992;2022-12-10T05:32:09;5.88;;;2.35;;
69246;SDS011;56358;56.328;43.992;2022-12-10T05:34:11;5.18;;;2.63;;
69246;SDS011;56358;56.328;43.992;2022-12-10T05:36:12;4.45;;;2.35;;
69246;SDS011;56358;56.328;43.992;2022-12-10T05:38:15;6.40;;;2.47;;
69246;SDS011;56358;56.328;43.992;2022-12-10T05:40:16;4.68;;;2.33;;
69246;SDS011;56358;56.328;43.992;2022-12-10T05:42:17;5.38;;;2.15;;
69246;SDS011;56358;56.328;43.992;2022-12-10T05:44:17;4.93;;;2.40;;
69246;SDS011;56358;56.328;43.992;2022-12-10T05:46:22;6.32;;;2.15;;
69246;SDS011;56358;56.328;43.992;2022-12-10T05:48:24;6.28;;;2.38;;
69246;SDS011;56358;56.328;43.992;2022-12-10T05:50:25;5.72;;;2.40;;
69246;SDS011;56358;56.328;43.992;2022-12-10T05:52:25;8.70;;;2.63;;
69246;SDS011;56358;56.328;43.992;2022-12-10T05:54:26;5.53;;;2.30;;
69246;SDS011;56358;56.328;43.992;2022-12-10T05:56:27;6.05;;;2.30;;
69246;SDS011;56358;56.328;43.992;2022-12-10T05:58:28;6.40;;;2.70;;
69246;SDS011;56358;56.328;43.992;2022-12-10T06:00:29;7.13;;;2.80;;
69246;SDS011;56358;56.328;43.992;2022-12-10T06:02:32;9.80;;;2.90;;
69246;SDS011;56358;56.328;43.992;2022-12-10T06:04:33;6.15;;;2.65;;
69246;SDS011;56358;56.328;43.992;2022-12-10T06:06:36;5.30;;;2.65;;
69246;SDS011;56358;56.328;43.992;2022-12-10T06:08:38;8.95;;;2.63;;
69246;SDS011;56358;56.328;43.992;2022-12-10T06:10:40;8.63;;;2.53;;
69246;SDS011;56358;56.328;43.992;2022-12-10T06:12:40;6.22;;;2.30;;
69246;SDS011;56358;56.328;43.992;2022-12-10T06:14:41;6.03;;;2.40;;
69246;SDS011;56358;56.328;43.992;2022-12-10T06:16:42;6.85;;;2.20;;
69246;SDS011;56358;56.328;43.992;2022-12-10T06:18:42;4.10;;;1.88;;
69246;SDS011;56358;56.328;43.992;2022-12-10T06:20:43;5.05;;;2.60;;
69246;SDS011;56358;56.328;43.992;2022-12-10T06:22:45;5.50;;;2.28;;
69246;SDS011;56358;56.328;43.992;2022-12-10T06:24:46;5.63;;;2.80;;
69246;SDS011;56358;56.328;43.992;2022-12-10T06:26:47;6.70;;;2.65;;
69246;SDS011;56358;56.328;43.992;2022-12-10T06:28:47;6.57;;;2.25;;
69246;SDS011;56358;56.328;43.992;2022-12-10T06:30:49;5.53;;;2.30;;
69246;SDS011;56358;56.328;43.992;2022-12-10T06:32:49;7.50;;;2.42;;
69246;SDS011;56358;56.328;43.992;2022-12-10T06:34:51;7.47;;;2.92;;
69246;SDS011;56358;56.328;43.992;2022-12-10T06:36:51;6.55;;;2.50;;
69246;SDS011;56358;56.328;43.992;2022-12-10T06:38:52;7.85;;;3.13;;
69246;SDS011;56358;56.328;43.992;2022-12-10T06:40:53;10.80;;;3.13;;
69246;SDS011;56358;56.328;43.992;2022-12-10T06:42:53;6.80;;;2.88;;
69246;SDS011;56358;56.328;43.992;2022-12-10T06:44:54;5.22;;;2.58;;
69246;SDS011;56358;56.328;43.992;2022-12-10T06:46:54;6.00;;;2.70;;
69246;SDS011;56358;56.328;43.992;2022-12-10T06:48:55;5.15;;;2.80;;
69246;SDS011;56358;56.328;43.992;2022-12-10T06:50:56;5.07;;;2.50;;
69246;SDS011;56358;56.328;43.992;2022-12-10T06:52:57;5.93;;;2.50;;
69246;SDS011;56358;56.328;43.992;2022-12-10T06:54:57;6.22;;;2.80;;
69246;SDS011;56358;56.328;43.992;2022-12-10T06:56:58;6.63;;;2.92;;
69246;SDS011;56358;56.328;43.992;2022-12-10T06:58:58;6.82;;;2.38;;
69246;SDS011;56358;56.328;43.992;2022-12-10T07:01:03;5.72;;;2.33;;
69246;SDS011;56358;56.328;43.992;2022-12-10T07:03:08;7.28;;;2.58;;
69246;SDS011;56358;56.328;43.992;2022-12-10T07:05:08;7.50;;;3.40;;
69246;SDS011;56358;56.328;43.992;2022-12-10T07:07:09;5.07;;;2.10;;
69246;SDS011;56358;56.328;43.992;2022-12-10T07:09:10;7.65;;;2.70;;
69246;SDS011;56358;56.328;43.992;2022-12-10T07:11:12;6.07;;;2.60;;
69246;SDS011;56358;56.328;43.992;2022-12-10T07:13:13;5.43;;;2.63;;
69246;SDS011;56358;56.328;43.992;2022-12-10T07:15:14;7.22;;;2.63;;
69246;SDS011;56358;56.328;43.992;2022-12-10T07:17:15;6.45;;;2.75;;
69246;SDS011;56358;56.328;43.992;2022-12-10T07:19:18;5.53;;;2.30;;
69246;SDS011;56358;56.328;43.992;2022-12-10T07:23:21;9.35;;;3.22;;
69246;SDS011;56358;56.328;43.992;2022-12-10T07:25:22;5.57;;;2.75;;
69246;SDS011;56358;56.328;43.992;2022-12-10T07:27:22;6.75;;;2.42;;
69246;SDS011;56358;56.328;43.992;2022-12-10T07:29:23;5.85;;;2.55;;
69246;SDS011;56358;56.328;43.992;2022-12-10T07:31:24;6.20;;;2.75;;
69246;SDS011;56358;56.328;43.992;2022-12-10T07:33:24;6.75;;;2.42;;
69246;SDS011;56358;56.328;43.992;2022-12-10T07:35:25;6.63;;;3.05;;
69246;SDS011;56358;56.328;43.992;2022-12-10T07:37:26;5.72;;;2.42;;
69246;SDS011;56358;56.328;43.992;2022-12-10T07:39:26;6.47;;;2.95;;
69246;SDS011;56358;56.328;43.992;2022-12-10T07:41:27;6.43;;;2.75;;
69246;SDS011;56358;56.328;43.992;2022-12-10T07:43:28;8.48;;;3.15;;
69246;SDS011;56358;56.328;43.992;2022-12-10T07:45:28;7.30;;;2.85;;
69246;SDS011;56358;56.328;43.992;2022-12-10T07:47:29;5.30;;;2.53;;
69246;SDS011;56358;56.328;43.992;2022-12-10T07:49:30;7.30;;;2.67;;
69246;SDS011;56358;56.328;43.992;2022-12-10T07:51:30;6.72;;;3.13;;
69246;SDS011;56358;56.328;43.992;2022-12-10T07:53:31;7.63;;;3.45;;
69246;SDS011;56358;56.328;43.992;2022-12-10T07:55:32;6.75;;;2.70;;
69246;SDS011;56358;56.328;43.992;2022-12-10T07:57:32;7.65;;;3.25;;
69246;SDS011;56358;56.328;43.992;2022-12-10T07:59:33;5.93;;;2.83;;
69246;SDS011;56358;56.328;43.992;2022-12-10T08:01:34;6.75;;;3.22;;
69246;SDS011;56358;56.328;43.992;2022-12-10T08:03:34;6.22;;;2.70;;
69246;SDS011;56358;56.328;43.992;2022-12-10T08:05:35;6.45;;;3.00;;
69246;SDS011;56358;56.328;43.992;2022-12-10T08:07:36;10.38;;;3.13;;
69246;SDS011;56358;56.328;43.992;2022-12-10T08:09:37;7.15;;;2.88;;
69246;SDS011;56358;56.328;43.992;2022-12-10T08:11:37;6.72;;;2.75;;
69246;SDS011;56358;56.328;43.992;2022-12-10T08:13:38;6.13;;;2.95;;
69246;SDS011;56358;56.328;43.992;2022-12-10T08:15:39;6.78;;;2.80;;
69246;SDS011;56358;56.328;43.992;2022-12-10T08:17:40;5.05;;;2.47;;
69246;SDS011;56358;56.328;43.992;2022-12-10T08:19:40;6.18;;;2.88;;
69246;SDS011;56358;56.328;43.992;2022-12-10T08:21:41;6.65;;;3.03;;
69246;SDS011;56358;56.328;43.992;2022-12-10T08:23:43;9.32;;;3.35;;
69246;SDS011;56358;56.328;43.992;2022-12-10T08:25:44;8.65;;;3.08;;
69246;SDS011;56358;56.328;43.992;2022-12-10T08:27:45;9.85;;;3.67;;
69246;SDS011;56358;56.328;43.992;2022-12-10T08:29:45;8.88;;;2.80;;
69246;SDS011;56358;56.328;43.992;2022-12-10T08:31:46;8.85;;;3.30;;
69246;SDS011;56358;56.328;43.992;2022-12-10T08:33:47;6.45;;;2.88;;
69246;SDS011;56358;56.328;43.992;2022-12-10T08:35:48;9.15;;;2.92;;
69246;SDS011;56358;56.328;43.992;2022-12-10T08:37:48;7.40;;;3.00;;
69246;SDS011;56358;56.328;43.992;2022-12-10T08:39:49;8.02;;;3.20;;
69246;SDS011;56358;56.328;43.992;2022-12-10T08:41:50;7.75;;;2.65;;
69246;SDS011;56358;56.328;43.992;2022-12-10T08:43:51;8.65;;;3.10;;
69246;SDS011;56358;56.328;43.992;2022-12-10T08:45:53;7.10;;;3.05;;
69246;SDS011;56358;56.328;43.992;2022-12-10T08:47:55;4.63;;;2.40;;
69246;SDS011;56358;56.328;43.992;2022-12-10T08:49:55;7.78;;;3.13;;
69246;SDS011;56358;56.328;43.992;2022-12-10T08:51:56;9.50;;;3.83;;
69246;SDS011;56358;56.328;43.992;2022-12-10T08:53:57;8.55;;;3.47;;
69246;SDS011;56358;56.328;43.992;2022-12-10T08:55:58;9.18;;;3.70;;
69246;SDS011;56358;56.328;43.992;2022-12-10T08:57:58;7.65;;;3.42;;
69246;SDS011;56358;56.328;43.992;2022-12-10T08:59:59;7.80;;;3.38;;
69246;SDS011;56358;56.328;43.992;2022-12-10T09:02:00;8.98;;;3.25;;
69246;SDS011;56358;56.328;43.992;2022-12-10T09:04:01;7.95;;;3.60;;
69246;SDS011;56358;56.328;43.992;2022-12-10T09:06:02;8.23;;;3.78;;
69246;SDS011;56358;56.328;43.992;2022-12-10T09:08:04;10.13;;;3.78;;
69246;SDS011;56358;56.328;43.992;2022-12-10T09:10:05;8.43;;;3.50;;
69246;SDS011;56358;56.328;43.992;2022-12-10T09:12:06;13.25;;;4.07;;
69246;SDS011;56358;56.328;43.992;2022-12-10T09:14:06;9.18;;;3.85;;
69246;SDS011;56358;56.328;43.992;2022-12-10T09:16:07;11.93;;;4.50;;
69246;SDS011;56358;56.328;43.992;2022-12-10T09:18:08;10.10;;;3.75;;
69246;SDS011;56358;56.328;43.992;2022-12-10T09:20:11;8.82;;;4.45;;
69246;SDS011;56358;56.328;43.992;2022-12-10T09:22:13;8.68;;;4.22;;
69246;SDS011;56358;56.328;43.992;2022-12-10T09:24:13;13.50;;;4.10;;
69246;SDS011;56358;56.328;43.992;2022-12-10T09:26:15;11.48;;;4.30;;
69246;SDS011;56358;56.328;43.992;2022-12-10T09:28:16;10.73;;;4.32;;
69246;SDS011;56358;56.328;43.992;2022-12-10T09:30:16;10.65;;;4.07;;
69246;SDS011;56358;56.328;43.992;2022-12-10T09:32:17;10.52;;;3.80;;
69246;SDS011;56358;56.328;43.992;2022-12-10T09:34:18;10.68;;;3.88;;
69246;SDS011;56358;56.328;43.992;2022-12-10T09:36:19;8.95;;;3.90;;
69246;SDS011;56358;56.328;43.992;2022-12-10T09:38:20;10.05;;;4.13;;
69246;SDS011;56358;56.328;43.992;2022-12-10T09:40:24;9.38;;;3.30;;
69246;SDS011;56358;56.328;43.992;2022-12-10T09:42:38;6.97;;;3.40;;
69246;SDS011;56358;56.328;43.992;2022-12-10T09:47:00;8.88;;;3.53;;
69246;SDS011;56358;56.328;43.992;2022-12-10T09:49:15;9.15;;;3.95;;
69246;SDS011;56358;56.328;43.992;2022-12-10T09:51:36;6.88;;;3.13;;
69246;SDS011;56358;56.328;43.992;2022-12-10T09:53:38;9.75;;;3.42;;
69246;SDS011;56358;56.328;43.992;2022-12-10T09:55:42;8.40;;;3.55;;
69246;SDS011;56358;56.328;43.992;2022-12-10T09:57:46;8.90;;;3.03;;
69246;SDS011;56358;56.328;43.992;2022-12-10T09:59:50;10.77;;;3.33;;
69246;SDS011;56358;56.328;43.992;2022-12-10T10:02:03;9.00;;;2.80;;
69246;SDS011;56358;56.328;43.992;2022-12-10T10:04:20;9.05;;;4.18;;
69246;SDS011;56358;56.328;43.992;2022-12-10T10:06:21;8.20;;;3.50;;
69246;SDS011;56358;56.328;43.992;2022-12-10T10:08:34;8.32;;;3.53;;
69246;SDS011;56358;56.328;43.992;2022-12-10T10:10:41;8.68;;;3.30;;
69246;SDS011;56358;56.328;43.992;2022-12-10T10:12:42;9.68;;;3.35;;
69246;SDS011;56358;56.328;43.992;2022-12-10T10:14:43;6.97;;;3.03;;
69246;SDS011;56358;56.328;43.992;2022-12-10T10:16:48;9.70;;;3.53;;
69246;SDS011;56358;56.328;43.992;2022-12-10T10:18:58;8.77;;;3.80;;
69246;SDS011;56358;56.328;43.992;2022-12-10T10:20:59;8.52;;;3.85;;
69246;SDS011;56358;56.328;43.992;2022-12-10T10:23:01;8.55;;;3.67;;
69246;SDS011;56358;56.328;43.992;2022-12-10T10:25:01;10.70;;;4.28;;
69246;SDS011;56358;56.328;43.992;2022-12-10T10:27:26;13.02;;;5.53;;
69246;SDS011;56358;56.328;43.992;2022-12-10T10:31:29;8.30;;;3.83;;
69246;SDS011;56358;56.328;43.992;2022-12-10T10:33:32;9.10;;;3.53;;
69246;SDS011;56358;56.328;43.992;2022-12-10T10:37:58;11.93;;;3.97;;
69246;SDS011;56358;56.328;43.992;2022-12-10T10:40:01;10.40;;;4.10;;
69246;SDS011;56358;56.328;43.992;2022-12-10T10:42:07;10.38;;;4.43;;
69246;SDS011;56358;56.328;43.992;2022-12-10T10:44:13;8.05;;;3.78;;
69246;SDS011;56358;56.328;43.992;2022-12-10T10:46:17;10.63;;;4.35;;
69246;SDS011;56358;56.328;43.992;2022-12-10T10:48:23;9.60;;;3.92;;
69246;SDS011;56358;56.328;43.992;2022-12-10T10:50:25;10.90;;;4.28;;
69246;SDS011;56358;56.328;43.992;2022-12-10T10:52:30;8.68;;;4.13;;
69246;SDS011;56358;56.328;43.992;2022-12-10T10:56:43;8.93;;;3.70;;
69246;SDS011;56358;56.328;43.992;2022-12-10T10:58:45;7.45;;;3.78;;
69246;SDS011;56358;56.328;43.992;2022-12-10T11:01:08;8.73;;;4.55;;
69246;SDS011;56358;56.328;43.992;2022-12-10T11:03:10;11.80;;;4.13;;
69246;SDS011;56358;56.328;43.992;2022-12-10T11:05:21;10.32;;;4.00;;
69246;SDS011;56358;56.328;43.992;2022-12-10T11:07:39;8.23;;;3.58;;
69246;SDS011;56358;56.328;43.992;2022-12-10T11:09:40;11.55;;;4.50;;
69246;SDS011;56358;56.328;43.992;2022-12-10T11:11:40;7.28;;;3.63;;
69246;SDS011;56358;56.328;43.992;2022-12-10T11:13:42;7.63;;;3.40;;
69246;SDS011;56358;56.328;43.992;2022-12-10T11:15:43;9.13;;;3.53;;
69246;SDS011;56358;56.328;43.992;2022-12-10T11:17:49;12.30;;;3.80;;
69246;SDS011;56358;56.328;43.992;2022-12-10T11:22:29;10.70;;;3.85;;
69246;SDS011;56358;56.328;43.992;2022-12-10T11:24:32;8.77;;;3.60;;
69246;SDS011;56358;56.328;43.992;2022-12-10T11:33:41;14.93;;;4.30;;
69246;SDS011;56358;56.328;43.992;2022-12-10T11:38:52;9.38;;;3.42;;
69246;SDS011;56358;56.328;43.992;2022-12-10T11:41:45;9.50;;;3.40;;
69246;SDS011;56358;56.328;43.992;2022-12-10T11:50:36;8.23;;;3.72;;
69246;SDS011;56358;56.328;43.992;2022-12-10T12:13:23;9.80;;;3.67;;
69246;SDS011;56358;56.328;43.992;2022-12-10T12:15:33;12.25;;;4.28;;
69246;SDS011;56358;56.328;43.992;2022-12-10T12:17:47;8.77;;;3.75;;
69246;SDS011;56358;56.328;43.992;2022-12-10T12:19:53;7.15;;;3.17;;
69246;SDS011;56358;56.328;43.992;2022-12-10T12:21:57;10.38;;;4.15;;
69246;SDS011;56358;56.328;43.992;2022-12-10T12:24:20;8.02;;;3.65;;
69246;SDS011;56358;56.328;43.992;2022-12-10T12:26:28;10.27;;;4.10;;
69246;SDS011;56358;56.328;43.992;2022-12-10T12:28:41;11.23;;;4.32;;
69246;SDS011;56358;56.328;43.992;2022-12-10T12:30:49;10.35;;;4.35;;
69246;SDS011;56358;56.328;43.992;2022-12-10T12:35:23;9.30;;;4.32;;
69246;SDS011;56358;56.328;43.992;2022-12-10T12:37:50;8.30;;;3.72;;
69246;SDS011;56358;56.328;43.992;2022-12-10T12:40:19;10.27;;;4.28;;
69246;SDS011;56358;56.328;43.992;2022-12-10T12:42:43;12.75;;;4.80;;
69246;SDS011;56358;56.328;43.992;2022-12-10T12:44:59;9.05;;;3.80;;
69246;SDS011;56358;56.328;43.992;2022-12-10T12:49:29;7.07;;;3.75;;
69246;SDS011;56358;56.328;43.992;2022-12-10T12:51:43;8.68;;;3.80;;
69246;SDS011;56358;56.328;43.992;2022-12-10T12:53:48;9.70;;;4.70;;
69246;SDS011;56358;56.328;43.992;2022-12-10T13:00:25;13.75;;;6.25;;
69246;SDS011;56358;56.328;43.992;2022-12-10T13:02:42;9.77;;;4.53;;
69246;SDS011;56358;56.328;43.992;2022-12-10T13:04:49;10.35;;;4.82;;
69246;SDS011;56358;56.328;43.992;2022-12-10T13:09:26;9.75;;;4.65;;
69246;SDS011;56358;56.328;43.992;2022-12-10T13:11:29;11.48;;;4.45;;
69246;SDS011;56358;56.328;43.992;2022-12-10T13:13:34;15.13;;;4.75;;
69246;SDS011;56358;56.328;43.992;2022-12-10T13:15:38;14.13;;;6.00;;
69246;SDS011;56358;56.328;43.992;2022-12-10T13:18:00;17.20;;;6.22;;
69246;SDS011;56358;56.328;43.992;2022-12-10T13:22:41;18.92;;;6.68;;
69246;SDS011;56358;56.328;43.992;2022-12-10T13:24:45;20.95;;;6.72;;
69246;SDS011;56358;56.328;43.992;2022-12-10T13:29:25;14.27;;;6.57;;
69246;SDS011;56358;56.328;43.992;2022-12-10T13:33:44;11.55;;;5.75;;
69246;SDS011;56358;56.328;43.992;2022-12-10T13:35:56;18.85;;;6.65;;
69246;SDS011;56358;56.328;43.992;2022-12-10T13:38:15;19.00;;;6.20;;
69246;SDS011;56358;56.328;43.992;2022-12-10T13:43:37;17.05;;;6.70;;
69246;SDS011;56358;56.328;43.992;2022-12-10T13:45:39;17.60;;;6.70;;
69246;SDS011;56358;56.328;43.992;2022-12-10T13:47:45;18.10;;;7.63;;
69246;SDS011;56358;56.328;43.992;2022-12-10T13:49:58;15.68;;;7.40;;